sensor_id;sensor_type;location;lat;lon;timestamp;pressure;altitude;pressure_sealevel;temperature;humidity
3544;BME280;1786;52.870;9.578;2023-05-25T00:00:42;101577.78;;;24.77;39.46
3544;BME280;1786;52.870;9.578;2023-05-25T00:03:25;101569.50;;;24.79;39.46
3544;BME280;1786;52.870;9.578;2023-05-25T00:05:53;101572.56;;;24.84;39.54
3544;BME280;1786;52.870;9.578;2023-05-25T00:08:20;101574.41;;;24.75;39.59
3544;BME280;1786;52.870;9.578;2023-05-25T00:10:46;101573.91;;;24.88;39.70
3544;BME280;1786;52.870;9.578;2023-05-25T00:13:13;101573.09;;;24.88;39.32
3544;BME280;1786;52.870;9.578;2023-05-25T00:15:40;101576.47;;;24.90;39.33
3544;BME280;1786;52.870;9.578;2023-05-25T00:18:07;101571.22;;;24.96;39.20
3544;BME280;1786;52.870;9.578;2023-05-25T00:20:34;101574.59;;;24.98;39.22
3544;BME280;1786;52.870;9.578;2023-05-25T00:23:01;101570.03;;;24.99;39.24
3544;BME280;1786;52.870;9.578;2023-05-25T00:25:28;101571.56;;;24.93;39.07
3544;BME280;1786;52.870;9.578;2023-05-25T00:27:55;101570.38;;;24.96;39.59
3544;BME280;1786;52.870;9.578;2023-05-25T00:30:22;101577.16;;;25.00;39.42
3544;BME280;1786;52.870;9.578;2023-05-25T00:32:48;101574.78;;;25.05;39.82
3544;BME280;1786;52.870;9.578;2023-05-25T00:35:15;101568.34;;;25.14;39.79
3544;BME280;1786;52.870;9.578;2023-05-25T00:37:42;101562.94;;;25.14;39.74
3544;BME280;1786;52.870;9.578;2023-05-25T00:40:14;101561.72;;;24.68;40.57
3544;BME280;1786;52.870;9.578;2023-05-25T00:42:42;101561.94;;;24.82;40.76
3544;BME280;1786;52.870;9.578;2023-05-25T00:45:09;101560.91;;;24.92;40.71
3544;BME280;1786;52.870;9.578;2023-05-25T00:47:38;101566.16;;;25.10;40.51
3544;BME280;1786;52.870;9.578;2023-05-25T00:50:07;101570.88;;;24.99;40.24
3544;BME280;1786;52.870;9.578;2023-05-25T00:52:34;101573.59;;;24.91;41.05
3544;BME280;1786;52.870;9.578;2023-05-25T00:55:02;101563.75;;;24.82;40.79
3544;BME280;1786;52.870;9.578;2023-05-25T00:57:32;101564.91;;;24.63;41.09
3544;BME280;1786;52.870;9.578;2023-05-25T01:00:01;101568.00;;;24.34;41.64
3544;BME280;1786;52.870;9.578;2023-05-25T01:02:28;101563.63;;;24.41;41.69
3544;BME280;1786;52.870;9.578;2023-05-25T01:04:59;101568.47;;;23.43;43.38
3544;BME280;1786;52.870;9.578;2023-05-25T01:07:29;101569.88;;;23.47;43.37
3544;BME280;1786;52.870;9.578;2023-05-25T01:10:00;101565.59;;;23.00;44.22
3544;BME280;1786;52.870;9.578;2023-05-25T01:12:29;101570.53;;;22.41;45.00
3544;BME280;1786;52.870;9.578;2023-05-25T01:14:58;101572.81;;;22.36;45.12
3544;BME280;1786;52.870;9.578;2023-05-25T01:17:26;101573.97;;;22.79;44.63
3544;BME280;1786;52.870;9.578;2023-05-25T01:19:54;101572.09;;;22.62;45.07
3544;BME280;1786;52.870;9.578;2023-05-25T01:22:50;101570.44;;;22.97;44.64
3544;BME280;1786;52.870;9.578;2023-05-25T01:25:36;101581.59;;;23.38;43.91
3544;BME280;1786;52.870;9.578;2023-05-25T01:28:06;101583.69;;;23.70;43.58
3544;BME280;1786;52.870;9.578;2023-05-25T01:30:36;101583.69;;;23.08;44.29
3544;BME280;1786;52.870;9.578;2023-05-25T01:33:05;101586.00;;;23.03;44.42
3544;BME280;1786;52.870;9.578;2023-05-25T01:35:34;101583.13;;;22.86;44.81
3544;BME280;1786;52.870;9.578;2023-05-25T01:38:01;101586.16;;;22.83;45.34
3544;BME280;1786;52.870;9.578;2023-05-25T01:40:28;101587.41;;;23.07;44.44
3544;BME280;1786;52.870;9.578;2023-05-25T01:42:55;101580.34;;;23.06;44.47
3544;BME280;1786;52.870;9.578;2023-05-25T01:45:22;101581.56;;;23.55;43.74
3544;BME280;1786;52.870;9.578;2023-05-25T01:48:01;101578.16;;;23.53;43.54
3544;BME280;1786;52.870;9.578;2023-05-25T01:50:42;101575.66;;;24.04;43.00
3544;BME280;1786;52.870;9.578;2023-05-25T01:53:18;101578.41;;;23.86;43.29
3544;BME280;1786;52.870;9.578;2023-05-25T01:55:51;101579.56;;;23.58;44.01
3544;BME280;1786;52.870;9.578;2023-05-25T01:58:19;101579.47;;;23.67;43.57
3544;BME280;1786;52.870;9.578;2023-05-25T02:00:48;101581.44;;;24.17;42.75
3544;BME280;1786;52.870;9.578;2023-05-25T02:03:17;101577.88;;;24.51;42.37
3544;BME280;1786;52.870;9.578;2023-05-25T02:05:44;101573.38;;;24.60;42.39
3544;BME280;1786;52.870;9.578;2023-05-25T02:08:11;101574.50;;;24.49;42.00
3544;BME280;1786;52.870;9.578;2023-05-25T02:10:39;101580.63;;;24.59;42.31
3544;BME280;1786;52.870;9.578;2023-05-25T02:13:05;101578.06;;;24.50;42.48
3544;BME280;1786;52.870;9.578;2023-05-25T02:15:33;101580.94;;;24.56;41.85
3544;BME280;1786;52.870;9.578;2023-05-25T02:18:00;101581.56;;;24.08;42.64
3544;BME280;1786;52.870;9.578;2023-05-25T02:20:29;101585.50;;;24.22;42.49
3544;BME280;1786;52.870;9.578;2023-05-25T02:22:56;101588.34;;;23.86;42.92
3544;BME280;1786;52.870;9.578;2023-05-25T02:25:23;101587.00;;;24.16;42.49
3544;BME280;1786;52.870;9.578;2023-05-25T02:27:49;101579.75;;;24.16;42.31
3544;BME280;1786;52.870;9.578;2023-05-25T02:30:16;101580.91;;;24.48;41.87
3544;BME280;1786;52.870;9.578;2023-05-25T02:32:43;101577.41;;;24.22;42.12
3544;BME280;1786;52.870;9.578;2023-05-25T02:35:11;101578.94;;;23.90;42.68
3544;BME280;1786;52.870;9.578;2023-05-25T02:37:38;101575.66;;;24.04;42.84
3544;BME280;1786;52.870;9.578;2023-05-25T02:40:06;101576.72;;;23.85;42.71
3544;BME280;1786;52.870;9.578;2023-05-25T02:42:34;101569.31;;;23.87;42.66
3544;BME280;1786;52.870;9.578;2023-05-25T02:45:01;101574.06;;;23.23;43.80
3544;BME280;1786;52.870;9.578;2023-05-25T02:47:29;101581.03;;;23.52;43.44
3544;BME280;1786;52.870;9.578;2023-05-25T02:49:57;101582.28;;;23.84;42.98
3544;BME280;1786;52.870;9.578;2023-05-25T02:52:24;101581.81;;;23.70;43.28
3544;BME280;1786;52.870;9.578;2023-05-25T02:54:51;101584.91;;;24.36;42.18
3544;BME280;1786;52.870;9.578;2023-05-25T02:57:26;101588.63;;;24.43;42.36
3544;BME280;1786;52.870;9.578;2023-05-25T02:59:54;101585.00;;;24.52;41.85
3544;BME280;1786;52.870;9.578;2023-05-25T03:02:20;101593.88;;;24.95;41.28
3544;BME280;1786;52.870;9.578;2023-05-25T03:04:50;101594.22;;;24.92;41.62
3544;BME280;1786;52.870;9.578;2023-05-25T03:07:19;101595.00;;;24.76;41.56
3544;BME280;1786;52.870;9.578;2023-05-25T03:09:47;101598.81;;;25.16;41.06
3544;BME280;1786;52.870;9.578;2023-05-25T03:12:14;101611.16;;;25.27;41.03
3544;BME280;1786;52.870;9.578;2023-05-25T03:14:41;101602.88;;;25.45;40.73
3544;BME280;1786;52.870;9.578;2023-05-25T03:17:08;101605.09;;;25.25;40.93
3544;BME280;1786;52.870;9.578;2023-05-25T03:19:35;101602.38;;;25.41;40.70
3544;BME280;1786;52.870;9.578;2023-05-25T03:22:02;101603.88;;;25.68;40.52
3544;BME280;1786;52.870;9.578;2023-05-25T03:24:30;101606.22;;;25.80;40.17
3544;BME280;1786;52.870;9.578;2023-05-25T03:27:00;101602.34;;;25.90;40.16
3544;BME280;1786;52.870;9.578;2023-05-25T03:29:27;101608.06;;;26.04;40.49
3544;BME280;1786;52.870;9.578;2023-05-25T03:31:54;101603.81;;;26.09;40.24
3544;BME280;1786;52.870;9.578;2023-05-25T03:34:24;101592.44;;;26.14;39.79
3544;BME280;1786;52.870;9.578;2023-05-25T03:36:51;101599.53;;;26.23;40.19
3544;BME280;1786;52.870;9.578;2023-05-25T03:39:20;101599.50;;;26.31;39.79
3544;BME280;1786;52.870;9.578;2023-05-25T03:41:49;101594.34;;;26.45;39.62
3544;BME280;1786;52.870;9.578;2023-05-25T03:44:16;101603.19;;;26.39;39.94
3544;BME280;1786;52.870;9.578;2023-05-25T03:46:43;101602.78;;;26.50;39.25
3544;BME280;1786;52.870;9.578;2023-05-25T03:49:11;101609.25;;;26.49;39.60
3544;BME280;1786;52.870;9.578;2023-05-25T03:51:40;101607.88;;;26.61;39.18
3544;BME280;1786;52.870;9.578;2023-05-25T03:54:07;101613.59;;;26.66;39.46
3544;BME280;1786;52.870;9.578;2023-05-25T03:56:34;101611.94;;;26.57;39.56
3544;BME280;1786;52.870;9.578;2023-05-25T03:59:03;101612.25;;;26.62;39.04
3544;BME280;1786;52.870;9.578;2023-05-25T04:01:30;101607.56;;;26.56;39.60
3544;BME280;1786;52.870;9.578;2023-05-25T04:03:57;101605.72;;;26.80;39.41
3544;BME280;1786;52.870;9.578;2023-05-25T04:06:24;101603.47;;;26.83;39.73
3544;BME280;1786;52.870;9.578;2023-05-25T04:08:51;101605.28;;;26.68;39.66
3544;BME280;1786;52.870;9.578;2023-05-25T04:11:18;101613.19;;;26.77;39.35
3544;BME280;1786;52.870;9.578;2023-05-25T04:13:45;101609.78;;;26.75;39.16
3544;BME280;1786;52.870;9.578;2023-05-25T04:16:12;101615.31;;;26.51;39.77
3544;BME280;1786;52.870;9.578;2023-05-25T04:18:40;101616.38;;;26.81;39.27
3544;BME280;1786;52.870;9.578;2023-05-25T04:21:07;101612.44;;;26.84;39.66
3544;BME280;1786;52.870;9.578;2023-05-25T04:23:33;101615.81;;;26.94;39.16
3544;BME280;1786;52.870;9.578;2023-05-25T04:26:01;101618.69;;;26.92;39.12
3544;BME280;1786;52.870;9.578;2023-05-25T04:28:29;101622.97;;;26.87;39.28
3544;BME280;1786;52.870;9.578;2023-05-25T04:31:11;101628.09;;;26.82;39.48
3544;BME280;1786;52.870;9.578;2023-05-25T04:34:04;101624.59;;;26.96;39.79
3544;BME280;1786;52.870;9.578;2023-05-25T04:36:38;101625.44;;;26.96;39.35
3544;BME280;1786;52.870;9.578;2023-05-25T04:39:08;101628.41;;;27.10;39.58
3544;BME280;1786;52.870;9.578;2023-05-25T04:41:39;101629.06;;;27.12;39.41
3544;BME280;1786;52.870;9.578;2023-05-25T04:44:08;101627.16;;;27.21;38.99
3544;BME280;1786;52.870;9.578;2023-05-25T04:46:48;101630.91;;;27.11;39.61
3544;BME280;1786;52.870;9.578;2023-05-25T04:49:20;101637.50;;;27.17;39.30
3544;BME280;1786;52.870;9.578;2023-05-25T04:51:47;101634.81;;;27.17;39.57
3544;BME280;1786;52.870;9.578;2023-05-25T04:54:14;101640.06;;;27.18;39.29
3544;BME280;1786;52.870;9.578;2023-05-25T04:56:41;101641.00;;;27.49;38.93
3544;BME280;1786;52.870;9.578;2023-05-25T04:59:08;101641.63;;;27.36;39.05
3544;BME280;1786;52.870;9.578;2023-05-25T05:01:35;101648.88;;;27.21;39.20
3544;BME280;1786;52.870;9.578;2023-05-25T05:04:10;101644.00;;;27.08;39.39
3544;BME280;1786;52.870;9.578;2023-05-25T05:06:38;101640.63;;;27.06;39.33
3544;BME280;1786;52.870;9.578;2023-05-25T05:09:05;101655.28;;;27.28;39.46
3544;BME280;1786;52.870;9.578;2023-05-25T05:11:32;101658.63;;;27.07;39.19
3544;BME280;1786;52.870;9.578;2023-05-25T05:14:03;101663.13;;;26.91;39.90
3544;BME280;1786;52.870;9.578;2023-05-25T05:16:30;101659.22;;;26.94;39.51
3544;BME280;1786;52.870;9.578;2023-05-25T05:19:00;101665.22;;;26.73;39.64
3544;BME280;1786;52.870;9.578;2023-05-25T05:21:28;101662.03;;;27.01;39.80
3544;BME280;1786;52.870;9.578;2023-05-25T05:23:54;101660.47;;;26.75;39.90
3544;BME280;1786;52.870;9.578;2023-05-25T05:26:22;101661.66;;;27.04;39.75
3544;BME280;1786;52.870;9.578;2023-05-25T05:28:49;101667.44;;;27.01;39.75
3544;BME280;1786;52.870;9.578;2023-05-25T05:31:20;101667.00;;;26.58;40.36
3544;BME280;1786;52.870;9.578;2023-05-25T05:33:47;101676.22;;;26.80;39.60
3544;BME280;1786;52.870;9.578;2023-05-25T05:36:14;101673.31;;;26.89;39.84
3544;BME280;1786;52.870;9.578;2023-05-25T05:38:42;101673.34;;;26.33;40.45
3544;BME280;1786;52.870;9.578;2023-05-25T05:41:12;101674.38;;;26.24;40.91
3544;BME280;1786;52.870;9.578;2023-05-25T05:43:44;101666.69;;;26.52;40.14
3544;BME280;1786;52.870;9.578;2023-05-25T05:46:12;101677.25;;;26.23;40.61
3544;BME280;1786;52.870;9.578;2023-05-25T05:48:39;101679.50;;;25.62;41.32
3544;BME280;1786;52.870;9.578;2023-05-25T05:51:07;101673.06;;;25.38;42.24
3544;BME280;1786;52.870;9.578;2023-05-25T05:53:33;101679.81;;;25.18;42.04
3544;BME280;1786;52.870;9.578;2023-05-25T05:56:02;101683.97;;;24.01;44.04
3544;BME280;1786;52.870;9.578;2023-05-25T05:58:29;101675.28;;;23.89;44.09
3544;BME280;1786;52.870;9.578;2023-05-25T06:00:58;101683.25;;;24.17;43.78
3544;BME280;1786;52.870;9.578;2023-05-25T06:03:25;101691.47;;;24.68;43.43
3544;BME280;1786;52.870;9.578;2023-05-25T06:05:55;101692.91;;;25.04;42.81
3544;BME280;1786;52.870;9.578;2023-05-25T06:08:23;101693.72;;;25.64;41.56
3544;BME280;1786;52.870;9.578;2023-05-25T06:10:50;101696.94;;;25.84;41.17
3544;BME280;1786;52.870;9.578;2023-05-25T06:13:17;101694.09;;;25.94;41.09
3544;BME280;1786;52.870;9.578;2023-05-25T06:15:43;101702.63;;;26.30;40.80
3544;BME280;1786;52.870;9.578;2023-05-25T06:18:19;101702.56;;;25.90;41.30
3544;BME280;1786;52.870;9.578;2023-05-25T06:20:46;101698.38;;;26.36;40.89
3544;BME280;1786;52.870;9.578;2023-05-25T06:23:14;101705.22;;;26.15;40.47
3544;BME280;1786;52.870;9.578;2023-05-25T06:25:40;101707.59;;;25.77;40.93
3544;BME280;1786;52.870;9.578;2023-05-25T06:28:07;101709.63;;;25.51;41.17
3544;BME280;1786;52.870;9.578;2023-05-25T06:30:34;101712.56;;;25.15;41.81
3544;BME280;1786;52.870;9.578;2023-05-25T06:33:02;101710.50;;;25.00;42.10
3544;BME280;1786;52.870;9.578;2023-05-25T06:35:29;101711.78;;;24.80;42.04
3544;BME280;1786;52.870;9.578;2023-05-25T06:37:56;101719.03;;;24.79;42.29
3544;BME280;1786;52.870;9.578;2023-05-25T06:40:23;101720.13;;;24.95;42.42
3544;BME280;1786;52.870;9.578;2023-05-25T06:42:50;101718.03;;;25.31;42.19
3544;BME280;1786;52.870;9.578;2023-05-25T06:45:35;101729.38;;;25.35;41.55
3544;BME280;1786;52.870;9.578;2023-05-25T06:48:02;101731.63;;;25.64;40.93
3544;BME280;1786;52.870;9.578;2023-05-25T06:50:28;101733.66;;;25.62;41.02
3544;BME280;1786;52.870;9.578;2023-05-25T06:52:55;101732.28;;;25.41;41.36
3544;BME280;1786;52.870;9.578;2023-05-25T06:55:25;101729.56;;;25.50;41.64
3544;BME280;1786;52.870;9.578;2023-05-25T06:57:52;101736.03;;;25.98;41.04
3544;BME280;1786;52.870;9.578;2023-05-25T07:00:18;101737.69;;;26.40;40.04
3544;BME280;1786;52.870;9.578;2023-05-25T07:02:47;101739.06;;;26.27;40.14
3544;BME280;1786;52.870;9.578;2023-05-25T07:05:13;101744.78;;;26.57;39.86
3544;BME280;1786;52.870;9.578;2023-05-25T07:07:41;101743.03;;;26.72;39.45
3544;BME280;1786;52.870;9.578;2023-05-25T07:10:08;101750.03;;;26.59;39.52
3544;BME280;1786;52.870;9.578;2023-05-25T07:12:34;101750.97;;;27.13;39.73
3544;BME280;1786;52.870;9.578;2023-05-25T07:15:01;101744.88;;;27.11;39.13
3544;BME280;1786;52.870;9.578;2023-05-25T07:17:28;101751.34;;;27.10;39.21
3544;BME280;1786;52.870;9.578;2023-05-25T07:19:54;101757.66;;;26.55;38.99
3544;BME280;1786;52.870;9.578;2023-05-25T07:22:21;101761.88;;;26.58;38.95
3544;BME280;1786;52.870;9.578;2023-05-25T07:24:49;101770.13;;;26.81;38.75
3544;BME280;1786;52.870;9.578;2023-05-25T07:27:16;101768.75;;;27.55;38.51
3544;BME280;1786;52.870;9.578;2023-05-25T07:29:43;101772.00;;;26.80;38.50
3544;BME280;1786;52.870;9.578;2023-05-25T07:32:09;101778.25;;;26.89;38.65
3544;BME280;1786;52.870;9.578;2023-05-25T07:34:36;101774.13;;;26.53;38.64
3544;BME280;1786;52.870;9.578;2023-05-25T07:37:03;101779.19;;;26.32;38.89
3544;BME280;1786;52.870;9.578;2023-05-25T07:39:29;101776.50;;;26.16;39.27
3544;BME280;1786;52.870;9.578;2023-05-25T07:41:56;101783.59;;;26.33;38.81
3544;BME280;1786;52.870;9.578;2023-05-25T07:44:23;101776.69;;;26.14;39.54
3544;BME280;1786;52.870;9.578;2023-05-25T07:46:50;101779.16;;;26.48;39.55
3544;BME280;1786;52.870;9.578;2023-05-25T07:49:16;101785.97;;;27.00;38.66
3544;BME280;1786;52.870;9.578;2023-05-25T07:51:43;101790.38;;;27.40;38.32
3544;BME280;1786;52.870;9.578;2023-05-25T07:54:11;101783.63;;;27.36;37.54
3544;BME280;1786;52.870;9.578;2023-05-25T07:56:38;101785.88;;;27.56;37.40
3544;BME280;1786;52.870;9.578;2023-05-25T07:59:04;101778.25;;;26.81;38.20
3544;BME280;1786;52.870;9.578;2023-05-25T08:01:31;101777.63;;;27.10;38.14
3544;BME280;1786;52.870;9.578;2023-05-25T08:03:58;101779.25;;;26.88;38.12
3544;BME280;1786;52.870;9.578;2023-05-25T08:06:25;101784.19;;;26.84;37.77
3544;BME280;1786;52.870;9.578;2023-05-25T08:08:52;101787.06;;;27.30;37.23
3544;BME280;1786;52.870;9.578;2023-05-25T08:11:22;101786.19;;;28.07;37.00
3544;BME280;1786;52.870;9.578;2023-05-25T08:13:50;101791.28;;;28.78;36.14
3544;BME280;1786;52.870;9.578;2023-05-25T08:16:17;101796.81;;;29.29;35.11
3544;BME280;1786;52.870;9.578;2023-05-25T08:18:44;101790.13;;;29.53;35.42
3544;BME280;1786;52.870;9.578;2023-05-25T08:21:12;101798.25;;;29.83;34.84
3544;BME280;1786;52.870;9.578;2023-05-25T08:23:39;101796.63;;;29.52;35.30
3544;BME280;1786;52.870;9.578;2023-05-25T08:26:09;101795.66;;;29.74;34.55
3544;BME280;1786;52.870;9.578;2023-05-25T08:28:56;101795.88;;;30.23;34.46
3544;BME280;1786;52.870;9.578;2023-05-25T08:31:23;101791.16;;;30.66;34.90
3544;BME280;1786;52.870;9.578;2023-05-25T08:33:50;101793.31;;;31.19;34.26
3544;BME280;1786;52.870;9.578;2023-05-25T08:36:16;101793.78;;;31.29;32.72
3544;BME280;1786;52.870;9.578;2023-05-25T08:38:43;101796.09;;;31.25;33.04
3544;BME280;1786;52.870;9.578;2023-05-25T08:41:11;101791.09;;;31.36;32.15
3544;BME280;1786;52.870;9.578;2023-05-25T08:43:40;101792.22;;;31.75;31.73
3544;BME280;1786;52.870;9.578;2023-05-25T08:46:07;101791.38;;;31.61;32.10
3544;BME280;1786;52.870;9.578;2023-05-25T08:48:35;101791.44;;;30.78;32.73
3544;BME280;1786;52.870;9.578;2023-05-25T08:51:09;101785.09;;;30.71;32.72
3544;BME280;1786;52.870;9.578;2023-05-25T08:53:38;101786.75;;;30.72;33.03
3544;BME280;1786;52.870;9.578;2023-05-25T08:56:26;101796.72;;;31.27;33.62
3544;BME280;1786;52.870;9.578;2023-05-25T08:59:01;101798.81;;;31.32;32.38
3544;BME280;1786;52.870;9.578;2023-05-25T09:01:35;101790.53;;;31.60;32.27
3544;BME280;1786;52.870;9.578;2023-05-25T09:04:05;101803.13;;;31.55;33.52
3544;BME280;1786;52.870;9.578;2023-05-25T09:06:32;101796.06;;;32.33;32.77
3544;BME280;1786;52.870;9.578;2023-05-25T09:09:03;101795.69;;;33.08;31.77
3544;BME280;1786;52.870;9.578;2023-05-25T09:11:31;101799.78;;;33.37;30.97
3544;BME280;1786;52.870;9.578;2023-05-25T09:14:10;101805.59;;;33.54;30.94
3544;BME280;1786;52.870;9.578;2023-05-25T09:16:37;101802.91;;;34.11;29.87
3544;BME280;1786;52.870;9.578;2023-05-25T09:19:04;101811.88;;;33.93;30.19
3544;BME280;1786;52.870;9.578;2023-05-25T09:21:31;101812.22;;;34.54;28.96
3544;BME280;1786;52.870;9.578;2023-05-25T09:23:58;101817.63;;;34.17;30.26
3544;BME280;1786;52.870;9.578;2023-05-25T09:26:25;101812.41;;;34.77;29.71
3544;BME280;1786;52.870;9.578;2023-05-25T09:28:52;101812.50;;;34.45;29.42
3544;BME280;1786;52.870;9.578;2023-05-25T09:31:22;101821.03;;;34.81;28.83
3544;BME280;1786;52.870;9.578;2023-05-25T09:33:50;101813.44;;;34.58;29.57
3544;BME280;1786;52.870;9.578;2023-05-25T09:36:21;101818.41;;;34.24;29.74
3544;BME280;1786;52.870;9.578;2023-05-25T09:38:51;101817.81;;;33.90;30.62
3544;BME280;1786;52.870;9.578;2023-05-25T09:41:19;101819.03;;;33.94;29.85
3544;BME280;1786;52.870;9.578;2023-05-25T09:43:46;101818.66;;;33.91;29.83
3544;BME280;1786;52.870;9.578;2023-05-25T09:46:34;101815.38;;;34.32;29.53
3544;BME280;1786;52.870;9.578;2023-05-25T09:49:07;101812.00;;;33.80;29.32
3544;BME280;1786;52.870;9.578;2023-05-25T09:51:35;101817.47;;;34.80;28.72
3544;BME280;1786;52.870;9.578;2023-05-25T09:54:03;101822.94;;;34.99;28.69
3544;BME280;1786;52.870;9.578;2023-05-25T09:56:31;101814.44;;;33.88;29.14
3544;BME280;1786;52.870;9.578;2023-05-25T09:58:58;101819.81;;;33.38;30.38
3544;BME280;1786;52.870;9.578;2023-05-25T10:01:25;101812.47;;;32.07;31.25
3544;BME280;1786;52.870;9.578;2023-05-25T10:03:53;101822.16;;;32.09;31.67
3544;BME280;1786;52.870;9.578;2023-05-25T10:06:31;101817.00;;;30.70;32.76
3544;BME280;1786;52.870;9.578;2023-05-25T10:08:59;101824.44;;;31.18;32.60
3544;BME280;1786;52.870;9.578;2023-05-25T10:11:28;101824.19;;;31.13;33.13
3544;BME280;1786;52.870;9.578;2023-05-25T10:13:54;101818.25;;;31.02;33.00
3544;BME280;1786;52.870;9.578;2023-05-25T10:16:24;101830.06;;;31.64;32.29
3544;BME280;1786;52.870;9.578;2023-05-25T10:19:05;101827.16;;;31.79;31.62
3544;BME280;1786;52.870;9.578;2023-05-25T10:21:33;101835.34;;;31.92;32.15
3544;BME280;1786;52.870;9.578;2023-05-25T10:24:05;101832.13;;;31.49;32.52
3544;BME280;1786;52.870;9.578;2023-05-25T10:26:39;101835.81;;;31.28;32.72
3544;BME280;1786;52.870;9.578;2023-05-25T10:29:07;101832.38;;;31.13;33.14
3544;BME280;1786;52.870;9.578;2023-05-25T10:31:36;101837.47;;;31.29;32.89
3544;BME280;1786;52.870;9.578;2023-05-25T10:34:03;101843.91;;;31.56;32.13
3544;BME280;1786;52.870;9.578;2023-05-25T10:36:32;101846.81;;;31.41;32.96
3544;BME280;1786;52.870;9.578;2023-05-25T10:38:59;101844.50;;;31.03;32.89
3544;BME280;1786;52.870;9.578;2023-05-25T10:41:27;101849.19;;;31.58;32.96
3544;BME280;1786;52.870;9.578;2023-05-25T10:43:54;101841.28;;;31.35;33.31
3544;BME280;1786;52.870;9.578;2023-05-25T10:46:21;101844.81;;;31.22;33.20
3544;BME280;1786;52.870;9.578;2023-05-25T10:48:49;101842.59;;;30.69;33.70
3544;BME280;1786;52.870;9.578;2023-05-25T10:51:20;101839.97;;;31.17;33.67
3544;BME280;1786;52.870;9.578;2023-05-25T10:53:58;101831.69;;;30.41;34.32
3544;BME280;1786;52.870;9.578;2023-05-25T10:56:26;101831.53;;;30.77;33.09
3544;BME280;1786;52.870;9.578;2023-05-25T10:58:53;101837.03;;;31.19;33.31
3544;BME280;1786;52.870;9.578;2023-05-25T11:01:20;101839.56;;;31.27;32.83
3544;BME280;1786;52.870;9.578;2023-05-25T11:06:18;101832.53;;;31.46;32.92
3544;BME280;1786;52.870;9.578;2023-05-25T11:08:52;101821.91;;;31.91;32.81
3544;BME280;1786;52.870;9.578;2023-05-25T11:11:20;101823.72;;;31.57;32.99
3544;BME280;1786;52.870;9.578;2023-05-25T11:13:48;101820.00;;;31.72;32.12
3544;BME280;1786;52.870;9.578;2023-05-25T11:16:19;101815.00;;;32.02;32.76
3544;BME280;1786;52.870;9.578;2023-05-25T11:18:56;101819.00;;;32.06;33.31
3544;BME280;1786;52.870;9.578;2023-05-25T11:24:02;101813.97;;;32.09;32.04
3544;BME280;1786;52.870;9.578;2023-05-25T11:26:33;101820.72;;;33.25;31.45
3544;BME280;1786;52.870;9.578;2023-05-25T11:29:11;101822.75;;;34.32;31.18
3544;BME280;1786;52.870;9.578;2023-05-25T11:31:38;101820.94;;;34.87;29.42
3544;BME280;1786;52.870;9.578;2023-05-25T11:34:09;101821.06;;;34.56;28.98
3544;BME280;1786;52.870;9.578;2023-05-25T11:36:37;101821.63;;;35.01;29.44
3544;BME280;1786;52.870;9.578;2023-05-25T11:39:04;101817.00;;;34.83;29.58
3544;BME280;1786;52.870;9.578;2023-05-25T11:41:48;101807.97;;;34.58;29.33
3544;BME280;1786;52.870;9.578;2023-05-25T11:44:24;101804.16;;;33.45;30.19
3544;BME280;1786;52.870;9.578;2023-05-25T11:46:53;101800.63;;;34.08;29.86
3544;BME280;1786;52.870;9.578;2023-05-25T11:49:23;101807.72;;;33.84;29.79
3544;BME280;1786;52.870;9.578;2023-05-25T11:51:56;101796.88;;;32.67;30.69
3544;BME280;1786;52.870;9.578;2023-05-25T11:54:24;101795.66;;;31.97;31.36
3544;BME280;1786;52.870;9.578;2023-05-25T11:56:52;101793.94;;;32.36;31.69
3544;BME280;1786;52.870;9.578;2023-05-25T11:59:22;101795.09;;;33.00;31.54
3544;BME280;1786;52.870;9.578;2023-05-25T12:01:55;101797.13;;;33.24;30.84
3544;BME280;1786;52.870;9.578;2023-05-25T12:04:21;101793.88;;;32.75;31.54
3544;BME280;1786;52.870;9.578;2023-05-25T12:06:50;101793.03;;;33.72;29.67
3544;BME280;1786;52.870;9.578;2023-05-25T12:09:20;101788.97;;;34.56;30.18
3544;BME280;1786;52.870;9.578;2023-05-25T12:11:47;101796.69;;;35.21;29.13
3544;BME280;1786;52.870;9.578;2023-05-25T12:14:14;101796.53;;;34.98;30.10
3544;BME280;1786;52.870;9.578;2023-05-25T12:16:41;101799.03;;;35.66;29.05
3544;BME280;1786;52.870;9.578;2023-05-25T12:19:09;101797.72;;;35.39;28.05
3544;BME280;1786;52.870;9.578;2023-05-25T12:21:40;101790.22;;;35.88;27.51
3544;BME280;1786;52.870;9.578;2023-05-25T12:24:08;101794.47;;;36.14;26.36
3544;BME280;1786;52.870;9.578;2023-05-25T12:26:46;101791.47;;;36.15;27.45
3544;BME280;1786;52.870;9.578;2023-05-25T12:29:12;101790.88;;;36.37;26.38
3544;BME280;1786;52.870;9.578;2023-05-25T12:31:39;101778.78;;;36.38;27.35
3544;BME280;1786;52.870;9.578;2023-05-25T12:34:12;101780.44;;;36.51;27.61
3544;BME280;1786;52.870;9.578;2023-05-25T12:36:51;101768.78;;;35.78;27.69
3544;BME280;1786;52.870;9.578;2023-05-25T12:41:58;101770.84;;;35.52;27.07
3544;BME280;1786;52.870;9.578;2023-05-25T12:44:27;101763.72;;;35.63;28.25
3544;BME280;1786;52.870;9.578;2023-05-25T12:49:38;101763.09;;;35.91;28.65
3544;BME280;1786;52.870;9.578;2023-05-25T12:52:05;101766.22;;;36.18;28.50
3544;BME280;1786;52.870;9.578;2023-05-25T12:54:43;101749.78;;;36.00;28.18
3544;BME280;1786;52.870;9.578;2023-05-25T12:57:15;101759.69;;;34.87;28.00
3544;BME280;1786;52.870;9.578;2023-05-25T12:59:45;101748.75;;;34.25;28.79
3544;BME280;1786;52.870;9.578;2023-05-25T13:02:13;101741.72;;;34.11;28.96
3544;BME280;1786;52.870;9.578;2023-05-25T13:04:40;101747.66;;;34.08;29.41
3544;BME280;1786;52.870;9.578;2023-05-25T13:07:07;101741.75;;;34.47;29.49
3544;BME280;1786;52.870;9.578;2023-05-25T13:09:35;101749.81;;;35.46;28.22
3544;BME280;1786;52.870;9.578;2023-05-25T13:12:02;101749.78;;;33.99;28.59
3544;BME280;1786;52.870;9.578;2023-05-25T13:14:29;101743.81;;;33.58;30.04
3544;BME280;1786;52.870;9.578;2023-05-25T13:16:56;101737.66;;;33.63;30.32
3544;BME280;1786;52.870;9.578;2023-05-25T13:19:24;101745.00;;;34.19;29.67
3544;BME280;1786;52.870;9.578;2023-05-25T13:21:51;101754.28;;;34.62;30.10
3544;BME280;1786;52.870;9.578;2023-05-25T13:24:18;101747.63;;;34.69;28.92
3544;BME280;1786;52.870;9.578;2023-05-25T13:26:45;101739.13;;;33.91;29.10
3544;BME280;1786;52.870;9.578;2023-05-25T13:29:16;101738.03;;;33.67;29.54